createdAt,value
2017-09-29T00:00:52.462Z,17.70
2017-09-29T00:01:52.462Z,17.50
2017-09-29T00:02:52.470Z,18.20
2017-09-29T00:03:52.463Z,18.70
2017-09-29T00:04:52.461Z,18.30
2017-09-29T00:05:52.457Z,17.10
2017-09-29T00:06:52.457Z,18.20
2017-09-29T00:07:52.458Z,18.10
2017-09-29T00:08:52.456Z,17.70
2017-09-29T00:09:52.460Z,18.00
2017-09-29T00:10:52.460Z,18.40
2017-09-29T00:11:52.464Z,18.10
2017-09-29T00:12:52.461Z,17.90
2017-09-29T00:13:52.455Z,17.90
2017-09-29T00:14:52.458Z,19.40
2017-09-29T00:15:52.456Z,18.90
2017-09-29T00:16:52.454Z,19.60
2017-09-29T00:17:52.457Z,18.00
2017-09-29T00:18:52.456Z,18.70
2017-09-29T00:19:52.456Z,20.40
2017-09-29T00:20:52.463Z,20.20
2017-09-29T00:21:52.457Z,19.50
2017-09-29T00:22:52.460Z,21.40
2017-09-29T00:23:52.459Z,22.40
2017-09-29T00:24:52.460Z,23.20
2017-09-29T00:25:52.458Z,24.30
2017-09-29T00:26:52.459Z,23.40
2017-09-29T00:27:52.459Z,23.60
2017-09-29T00:28:52.458Z,23.80
2017-09-29T00:29:52.453Z,25.60
2017-09-29T00:30:52.454Z,25.90
2017-09-29T00:31:52.454Z,27.30
2017-09-29T00:32:52.453Z,28.20
2017-09-29T00:33:52.453Z,26.20
2017-09-29T00:34:52.453Z,27.90
2017-09-29T00:35:52.453Z,29.40
2017-09-29T00:36:52.453Z,29.20
2017-09-29T00:37:52.456Z,31.00
2017-09-29T00:38:52.456Z,31.00
2017-09-29T00:39:52.457Z,31.00
2017-09-29T00:40:52.456Z,32.00
2017-09-29T00:41:52.461Z,31.00
2017-09-29T00:42:52.457Z,32.60
2017-09-29T00:43:52.455Z,34.30
2017-09-29T00:44:52.455Z,33.10
2017-09-29T00:45:52.449Z,33.60
2017-09-29T00:46:52.452Z,33.70
2017-09-29T00:47:52.451Z,36.30
2017-09-29T00:48:52.449Z,36.30
2017-09-29T00:49:52.449Z,35.20
2017-09-29T00:50:52.450Z,35.10
2017-09-29T00:51:52.449Z,36.70
2017-09-29T00:52:52.449Z,35.40
2017-09-29T00:53:52.453Z,35.60
2017-09-29T00:54:52.452Z,37.80
2017-09-29T00:55:52.453Z,35.90
2017-09-29T00:56:52.450Z,37.70
2017-09-29T00:57:52.451Z,37.00
2017-09-29T00:58:52.450Z,37.10
2017-09-29T00:59:52.451Z,37.00
2017-09-29T01:00:52.449Z,35.40
2017-09-29T01:01:52.445Z,35.00
2017-09-29T01:02:52.445Z,34.10
2017-09-29T01:03:52.445Z,34.50
2017-09-29T01:04:52.445Z,35.20
2017-09-29T01:05:52.444Z,33.70
2017-09-29T01:06:52.443Z,33.90
2017-09-29T01:07:52.442Z,35.70
2017-09-29T01:08:52.442Z,36.30
2017-09-29T01:09:52.446Z,36.30
2017-09-29T01:10:52.445Z,37.00
2017-09-29T01:11:52.446Z,35.20
2017-09-29T01:12:52.445Z,36.30
2017-09-29T01:13:52.440Z,38.30
2017-09-29T01:14:52.443Z,38.30
2017-09-29T01:15:52.439Z,39.10
2017-09-29T01:16:52.438Z,37.60
2017-09-29T01:17:52.443Z,38.00
2017-09-29T01:18:52.442Z,38.90
2017-09-29T01:19:52.442Z,38.10
2017-09-29T01:20:52.440Z,36.60
2017-09-29T01:21:52.439Z,36.10
2017-09-29T01:22:52.439Z,34.50
2017-09-29T01:23:52.439Z,31.00
2017-09-29T01:24:52.438Z,31.70
2017-09-29T01:25:52.432Z,33.90
2017-09-29T01:26:52.432Z,31.50
2017-09-29T01:27:52.433Z,34.20
2017-09-29T01:28:52.432Z,32.00
2017-09-29T01:29:52.433Z,27.60
2017-09-29T01:30:52.431Z,27.20
2017-09-29T01:31:52.429Z,28.20
2017-09-29T01:32:52.452Z,25.90
2017-09-29T01:33:52.434Z,27.40
2017-09-29T01:34:52.435Z,26.30
2017-09-29T01:35:52.433Z,26.80
2017-09-29T01:36:52.431Z,30.30
2017-09-29T01:37:52.431Z,29.40
2017-09-29T01:38:52.429Z,29.50
2017-09-29T01:39:52.429Z,29.60
2017-09-29T01:40:52.429Z,31.60
2017-09-29T01:41:52.423Z,30.70
2017-09-29T01:42:52.423Z,30.30
2017-09-29T01:43:52.423Z,32.60
2017-09-29T01:44:52.420Z,33.20
2017-09-29T01:45:52.421Z,34.00
2017-09-29T01:46:52.419Z,33.10
2017-09-29T01:47:52.419Z,30.80
2017-09-29T01:48:52.417Z,29.30
2017-09-29T01:49:52.424Z,28.90
2017-09-29T01:50:52.427Z,29.40
2017-09-29T01:51:52.419Z,28.60
2017-09-29T01:52:52.419Z,27.00
2017-09-29T01:53:52.418Z,26.80
2017-09-29T01:54:52.418Z,26.10
2017-09-29T01:55:52.422Z,26.70
2017-09-29T01:56:52.415Z,28.90
2017-09-29T01:57:52.410Z,26.30
2017-09-29T01:58:52.410Z,28.40
2017-09-29T01:59:52.413Z,29.20
2017-09-29T02:00:52.407Z,27.40
2017-09-29T02:01:52.406Z,27.10
2017-09-29T02:02:52.407Z,28.30
2017-09-29T02:03:52.407Z,28.30
2017-09-29T02:04:52.405Z,31.10
2017-09-29T02:05:52.409Z,30.00
2017-09-29T02:06:52.408Z,30.20
2017-09-29T02:07:52.407Z,31.30
2017-09-29T02:08:52.404Z,30.90
2017-09-29T02:09:52.403Z,30.40
2017-09-29T02:10:52.405Z,31.70
2017-09-29T02:11:52.404Z,32.50
2017-09-29T02:12:52.403Z,32.00
2017-09-29T02:13:52.396Z,32.80
2017-09-29T02:14:52.396Z,33.90
2017-09-29T02:15:52.395Z,31.40
2017-09-29T02:16:52.392Z,34.70
2017-09-29T02:17:52.396Z,34.60
2017-09-29T02:18:52.396Z,35.80
2017-09-29T02:19:52.395Z,35.20
2017-09-29T02:20:52.394Z,35.30
2017-09-29T02:21:52.389Z,36.80
2017-09-29T02:22:52.388Z,38.40
2017-09-29T02:23:52.387Z,36.00
2017-09-29T02:24:52.384Z,37.10
2017-09-29T02:25:52.386Z,36.50
2017-09-29T02:26:52.384Z,36.10
2017-09-29T02:27:52.382Z,35.60
2017-09-29T02:28:52.381Z,36.60
2017-09-29T02:29:52.384Z,35.60
2017-09-29T02:30:52.384Z,36.50
2017-09-29T02:31:52.384Z,34.50
2017-09-29T02:32:52.382Z,36.90
2017-09-29T02:33:52.380Z,36.30
2017-09-29T02:34:52.380Z,36.50
2017-09-29T02:35:52.380Z,35.20
2017-09-29T02:36:52.381Z,36.20
2017-09-29T02:37:52.372Z,35.50
2017-09-29T02:38:52.374Z,35.30
2017-09-29T02:39:52.372Z,33.60
2017-09-29T02:40:52.370Z,35.50
2017-09-29T02:41:52.370Z,34.90
2017-09-29T02:42:52.368Z,34.70
2017-09-29T02:43:52.368Z,32.70
2017-09-29T02:44:52.366Z,34.00
2017-09-29T02:45:52.370Z,33.50
2017-09-29T02:46:52.368Z,34.40
2017-09-29T02:47:52.368Z,35.90
2017-09-29T02:48:52.367Z,34.10
2017-09-29T02:49:52.370Z,34.30
2017-09-29T02:50:52.365Z,34.90
2017-09-29T02:51:52.365Z,33.90
2017-09-29T02:52:52.361Z,35.20
2017-09-29T02:53:52.358Z,34.00
2017-09-29T02:54:52.358Z,33.30
2017-09-29T02:55:52.356Z,33.90
2017-09-29T02:56:52.355Z,32.70
2017-09-29T02:57:52.354Z,35.20
2017-09-29T02:58:52.352Z,34.70
2017-09-29T02:59:52.352Z,34.20
2017-09-29T03:00:52.351Z,35.70
2017-09-29T03:01:52.355Z,35.80
2017-09-29T03:02:52.353Z,35.80
2017-09-29T03:03:52.352Z,34.40
2017-09-29T03:04:52.350Z,34.80
2017-09-29T03:05:52.349Z,35.50
2017-09-29T03:06:52.347Z,35.50
2017-09-29T03:07:52.346Z,35.20
2017-09-29T03:08:52.346Z,33.40
2017-09-29T03:09:52.340Z,32.00
2017-09-29T03:10:52.339Z,31.40
2017-09-29T03:11:52.338Z,30.60
2017-09-29T03:12:52.339Z,29.60
2017-09-29T03:13:52.336Z,30.20
2017-09-29T03:14:52.335Z,31.60
2017-09-29T03:15:52.334Z,29.90
2017-09-29T03:16:52.332Z,30.80
2017-09-29T03:17:52.335Z,30.10
2017-09-29T03:18:52.333Z,30.10
2017-09-29T03:19:52.334Z,30.20
2017-09-29T03:20:52.332Z,27.80
2017-09-29T03:21:52.334Z,28.40
2017-09-29T03:22:52.331Z,30.80
2017-09-29T03:23:52.330Z,28.50
2017-09-29T03:24:52.327Z,28.70
2017-09-29T03:25:52.324Z,31.20
2017-09-29T03:26:52.321Z,31.20
2017-09-29T03:27:52.325Z,31.60
2017-09-29T03:28:52.318Z,30.70
2017-09-29T03:29:52.323Z,31.30
2017-09-29T03:30:52.319Z,31.60
2017-09-29T03:31:52.316Z,31.50
2017-09-29T03:32:52.315Z,30.50
2017-09-29T03:33:52.318Z,30.90
2017-09-29T03:34:52.317Z,31.30
2017-09-29T03:35:52.320Z,30.20
2017-09-29T03:36:52.314Z,31.40
2017-09-29T03:37:52.314Z,30.50
2017-09-29T03:38:52.313Z,29.80
2017-09-29T03:39:52.311Z,30.10
2017-09-29T03:40:52.308Z,31.10
2017-09-29T03:41:52.305Z,30.40
2017-09-29T03:42:52.304Z,29.90
2017-09-29T03:43:52.305Z,30.20
2017-09-29T03:44:52.303Z,28.90
2017-09-29T03:45:52.301Z,29.70
2017-09-29T03:46:52.299Z,30.30
2017-09-29T03:47:52.298Z,29.30
2017-09-29T03:48:52.296Z,29.10
2017-09-29T03:49:52.299Z,29.70
2017-09-29T03:50:52.300Z,29.90
2017-09-29T03:51:52.298Z,28.70
2017-09-29T03:52:52.297Z,27.60
2017-09-29T03:53:52.295Z,27.80
2017-09-29T03:54:52.295Z,28.80
2017-09-29T03:55:52.295Z,29.70
2017-09-29T03:56:52.292Z,31.40
2017-09-29T03:57:52.287Z,30.50
2017-09-29T03:58:52.288Z,29.30
2017-09-29T03:59:52.286Z,28.40
2017-09-29T04:00:52.284Z,28.70
2017-09-29T04:01:52.285Z,28.30
2017-09-29T04:02:52.283Z,28.50
2017-09-29T04:03:52.283Z,26.80
2017-09-29T04:04:52.280Z,25.50
2017-09-29T04:05:52.283Z,26.60
2017-09-29T04:06:52.283Z,27.20
2017-09-29T04:07:52.284Z,26.30
2017-09-29T04:08:52.281Z,26.40
2017-09-29T04:09:52.278Z,27.80
2017-09-29T04:10:52.278Z,27.40
2017-09-29T04:11:52.278Z,25.60
2017-09-29T04:12:52.283Z,26.50
2017-09-29T04:13:52.273Z,25.20
2017-09-29T04:14:52.271Z,26.50
2017-09-29T04:15:52.273Z,26.40
2017-09-29T04:16:52.267Z,24.70
2017-09-29T04:17:52.267Z,25.10
2017-09-29T04:18:52.267Z,27.10
2017-09-29T04:19:52.266Z,26.50
2017-09-29T04:20:52.265Z,25.80
2017-09-29T04:21:52.267Z,25.50
2017-09-29T04:22:52.266Z,25.40
2017-09-29T04:23:52.264Z,26.10
2017-09-29T04:24:52.264Z,26.00
2017-09-29T04:25:52.260Z,25.50
2017-09-29T04:26:52.259Z,27.10
2017-09-29T04:27:52.258Z,26.60
2017-09-29T04:28:52.260Z,25.80
2017-09-29T04:29:52.259Z,25.50
2017-09-29T04:30:52.262Z,26.70
2017-09-29T04:31:52.258Z,25.80
2017-09-29T04:32:52.256Z,25.00
2017-09-29T04:33:52.255Z,27.70
2017-09-29T04:34:52.254Z,27.10
2017-09-29T04:35:52.256Z,27.00
2017-09-29T04:36:52.258Z,26.50
2017-09-29T04:37:52.246Z,26.60
2017-09-29T04:38:52.248Z,27.80
2017-09-29T04:39:52.246Z,28.00
2017-09-29T04:40:52.243Z,28.00
2017-09-29T04:41:52.243Z,28.00
2017-09-29T04:42:52.243Z,29.20
2017-09-29T04:43:52.241Z,28.80
2017-09-29T04:44:52.240Z,29.60
2017-09-29T04:45:52.242Z,28.70
2017-09-29T04:46:52.242Z,28.90
2017-09-29T04:47:52.242Z,28.90
2017-09-29T04:48:52.240Z,27.60
2017-09-29T04:49:52.239Z,30.80
2017-09-29T04:50:52.238Z,30.70
2017-09-29T04:51:52.239Z,29.10
2017-09-29T04:52:52.235Z,29.50
2017-09-29T04:53:52.229Z,29.70
2017-09-29T04:54:52.231Z,27.90
2017-09-29T04:55:52.228Z,29.70
2017-09-29T04:56:52.227Z,29.70
2017-09-29T04:57:52.226Z,29.40
2017-09-29T04:58:52.226Z,28.40
2017-09-29T04:59:52.226Z,28.60
2017-09-29T05:00:52.223Z,28.30
2017-09-29T05:01:52.227Z,28.50
2017-09-29T05:02:52.227Z,30.30
2017-09-29T05:03:52.226Z,28.40
2017-09-29T05:04:52.224Z,28.10
2017-09-29T05:05:52.224Z,30.10
2017-09-29T05:06:52.222Z,29.60
2017-09-29T05:07:52.221Z,28.60
2017-09-29T05:08:52.220Z,29.10
2017-09-29T05:09:52.215Z,28.40
2017-09-29T05:10:52.215Z,29.00
2017-09-29T05:11:52.213Z,28.20
2017-09-29T05:12:52.212Z,28.90
2017-09-29T05:13:52.211Z,27.60
2017-09-29T05:14:52.211Z,26.60
2017-09-29T05:15:52.211Z,29.10
2017-09-29T05:16:52.209Z,30.10
2017-09-29T05:17:52.213Z,28.70
2017-09-29T05:18:52.211Z,29.70
2017-09-29T05:19:52.211Z,29.10
2017-09-29T05:20:52.210Z,28.70
2017-09-29T05:21:52.208Z,29.40
2017-09-29T05:22:52.208Z,30.40
2017-09-29T05:23:52.207Z,29.50
2017-09-29T05:24:52.205Z,29.80
2017-09-29T05:25:52.200Z,32.10
2017-09-29T05:26:52.200Z,31.40
2017-09-29T05:27:52.199Z,30.00
2017-09-29T05:28:52.198Z,29.20
2017-09-29T05:29:52.201Z,30.70
2017-09-29T05:30:52.200Z,30.80
2017-09-29T05:31:52.198Z,31.20
2017-09-29T05:32:52.198Z,32.10
2017-09-29T05:33:52.192Z,31.40
2017-09-29T05:34:52.193Z,32.10
2017-09-29T05:35:52.193Z,30.70
2017-09-29T05:36:52.196Z,32.60
2017-09-29T05:37:52.189Z,32.20
2017-09-29T05:38:52.187Z,32.50
2017-09-29T05:39:52.188Z,34.00
2017-09-29T05:40:52.186Z,32.80
2017-09-29T05:41:52.190Z,34.30
2017-09-29T05:42:52.188Z,33.50
2017-09-29T05:43:52.192Z,34.10
2017-09-29T05:44:52.187Z,32.00
2017-09-29T05:45:52.185Z,32.30
2017-09-29T05:46:52.185Z,32.90
2017-09-29T05:47:52.191Z,32.60
2017-09-29T05:48:52.183Z,32.00
2017-09-29T05:49:52.177Z,32.10
2017-09-29T05:50:52.178Z,32.50
2017-09-29T05:51:52.177Z,32.50
2017-09-29T05:52:52.175Z,32.90
2017-09-29T05:53:52.175Z,32.60
2017-09-29T05:54:52.175Z,33.00
2017-09-29T05:55:52.173Z,33.40
2017-09-29T05:56:52.173Z,34.00
2017-09-29T05:57:52.176Z,33.30
2017-09-29T05:58:52.174Z,32.40
2017-09-29T05:59:52.175Z,32.60
2017-09-29T06:00:52.176Z,32.30
2017-09-29T06:01:52.171Z,34.00
2017-09-29T06:02:52.170Z,32.10
2017-09-29T06:03:52.171Z,34.40
2017-09-29T06:04:52.169Z,33.70
2017-09-29T06:05:52.165Z,33.00
2017-09-29T06:06:52.164Z,32.90
2017-09-29T06:07:52.163Z,33.60
2017-09-29T06:08:52.162Z,32.60
2017-09-29T06:09:52.162Z,33.80
2017-09-29T06:10:52.161Z,31.70
2017-09-29T06:11:52.160Z,33.10
2017-09-29T06:12:52.159Z,31.30
2017-09-29T06:13:52.162Z,31.50
2017-09-29T06:14:52.162Z,30.50
2017-09-29T06:15:52.167Z,31.90
2017-09-29T06:16:52.159Z,32.00
2017-09-29T06:17:52.159Z,31.50
2017-09-29T06:18:52.158Z,31.60
2017-09-29T06:19:52.158Z,31.30
2017-09-29T06:20:52.156Z,31.00
2017-09-29T06:21:52.152Z,30.20
2017-09-29T06:22:52.152Z,30.70
2017-09-29T06:23:52.152Z,29.60
2017-09-29T06:24:52.151Z,29.40
2017-09-29T06:25:52.150Z,28.10
2017-09-29T06:26:52.148Z,28.50
2017-09-29T06:27:52.149Z,29.10
2017-09-29T06:28:52.148Z,28.10
2017-09-29T06:29:52.152Z,27.40
2017-09-29T06:30:52.152Z,28.00
2017-09-29T06:31:52.151Z,26.70
2017-09-29T06:32:52.151Z,27.20
2017-09-29T06:33:52.146Z,27.20
2017-09-29T06:34:52.147Z,26.60
2017-09-29T06:35:52.146Z,26.00
2017-09-29T06:36:52.145Z,26.60
2017-09-29T06:37:52.149Z,26.00
2017-09-29T06:38:52.150Z,27.20
2017-09-29T06:39:52.149Z,26.00
2017-09-29T06:40:52.150Z,25.90
2017-09-29T06:41:52.149Z,26.50
2017-09-29T06:42:52.149Z,26.40
2017-09-29T06:43:52.150Z,26.60
2017-09-29T06:44:52.148Z,25.80
2017-09-29T06:45:52.144Z,24.30
2017-09-29T06:46:52.146Z,23.80
2017-09-29T06:47:52.145Z,24.80
2017-09-29T06:48:52.148Z,22.60
2017-09-29T06:49:52.146Z,22.00
2017-09-29T06:50:52.148Z,22.50
2017-09-29T06:51:52.148Z,23.30
2017-09-29T06:52:52.148Z,22.70
2017-09-29T06:53:52.153Z,22.40
2017-09-29T06:54:52.153Z,22.50
2017-09-29T06:55:52.157Z,23.20
2017-09-29T06:56:52.154Z,22.90
2017-09-29T06:57:52.156Z,22.40
2017-09-29T06:58:52.157Z,22.10
2017-09-29T06:59:52.157Z,24.10
2017-09-29T07:00:52.158Z,24.20
2017-09-29T07:01:52.156Z,22.60
2017-09-29T07:02:52.156Z,23.10
2017-09-29T07:03:52.158Z,22.00
2017-09-29T07:04:52.158Z,23.50
2017-09-29T07:05:52.158Z,25.70
2017-09-29T07:06:52.160Z,23.90
2017-09-29T07:07:52.162Z,24.10
2017-09-29T07:08:52.164Z,22.30
2017-09-29T07:09:52.169Z,22.50
2017-09-29T07:10:52.169Z,22.60
2017-09-29T07:11:52.171Z,22.00
2017-09-29T07:12:52.171Z,21.60
2017-09-29T07:13:52.173Z,22.70
2017-09-29T07:14:52.175Z,20.80
2017-09-29T07:15:52.176Z,20.50
2017-09-29T07:16:52.177Z,20.20
2017-09-29T07:17:52.175Z,19.80
2017-09-29T07:18:52.177Z,19.70
2017-09-29T07:19:52.180Z,18.90
2017-09-29T07:20:52.182Z,17.40
2017-09-29T07:21:52.185Z,17.90
2017-09-29T07:22:52.188Z,18.80
2017-09-29T07:23:52.192Z,17.70
2017-09-29T07:24:52.194Z,17.30
2017-09-29T07:25:52.202Z,17.80
2017-09-29T07:26:52.206Z,18.30
2017-09-29T07:27:52.238Z,17.70
2017-09-29T07:28:52.214Z,19.00
2017-09-29T07:29:52.219Z,19.30
2017-09-29T07:30:52.223Z,19.90
2017-09-29T07:31:52.227Z,19.60
2017-09-29T07:32:52.229Z,19.20
2017-09-29T07:33:52.280Z,19.40
2017-09-29T07:34:52.240Z,19.30
2017-09-29T07:35:52.238Z,18.80
2017-09-29T07:36:52.243Z,19.20
2017-09-29T07:37:52.247Z,17.70
2017-09-29T07:38:52.252Z,17.30
2017-09-29T07:39:52.257Z,18.00
2017-09-29T07:40:52.261Z,16.70
2017-09-29T07:41:52.270Z,16.40
2017-09-29T07:42:52.274Z,16.30
2017-09-29T07:43:52.280Z,16.50
2017-09-29T07:44:52.284Z,15.80
2017-09-29T07:45:52.294Z,15.90
2017-09-29T07:46:52.294Z,15.90
2017-09-29T07:47:52.300Z,15.80
2017-09-29T07:48:52.305Z,15.70
2017-09-29T07:49:52.307Z,16.60
2017-09-29T07:50:52.312Z,14.20
2017-09-29T07:51:52.317Z,15.50
2017-09-29T07:52:52.325Z,14.60
2017-09-29T07:53:52.330Z,14.60
2017-09-29T07:54:52.337Z,14.50
2017-09-29T07:55:52.344Z,13.80
2017-09-29T07:56:52.353Z,13.50
2017-09-29T07:57:52.360Z,13.60
2017-09-29T07:58:52.368Z,13.80
2017-09-29T07:59:52.375Z,13.30
2017-09-29T08:00:52.380Z,12.80
2017-09-29T08:01:52.387Z,13.00
2017-09-29T08:02:52.397Z,12.50
2017-09-29T08:03:52.404Z,12.40
2017-09-29T08:04:52.413Z,12.50
2017-09-29T08:05:52.416Z,12.40
2017-09-29T08:06:52.424Z,12.20
2017-09-29T08:07:52.433Z,11.60
2017-09-29T08:08:52.441Z,11.30
2017-09-29T08:09:52.447Z,11.70
2017-09-29T08:10:52.455Z,11.50
2017-09-29T08:11:52.467Z,11.50
2017-09-29T08:12:52.475Z,11.30
2017-09-29T08:13:52.489Z,11.80
2017-09-29T08:14:52.498Z,11.30
2017-09-29T08:15:52.508Z,11.00
2017-09-29T08:16:52.517Z,11.10
2017-09-29T08:17:52.526Z,10.30
2017-09-29T08:18:52.537Z,10.00
2017-09-29T08:19:52.546Z,10.50
2017-09-29T08:20:52.558Z,10.70
2017-09-29T08:21:52.564Z,10.40
2017-09-29T08:22:52.573Z,10.30
2017-09-29T08:23:52.586Z,10.50
2017-09-29T08:24:52.596Z,9.80
2017-09-29T08:25:52.606Z,10.00
2017-09-29T08:26:52.618Z,9.60
2017-09-29T08:27:52.628Z,9.10
2017-09-29T08:28:52.640Z,9.20
2017-09-29T08:29:52.657Z,9.30
2017-09-29T08:30:52.668Z,9.00
2017-09-29T08:31:52.679Z,9.00
2017-09-29T08:32:52.694Z,9.60
2017-09-29T08:33:52.709Z,8.80
2017-09-29T08:34:52.719Z,8.90
2017-09-29T08:35:52.728Z,8.90
2017-09-29T08:36:52.739Z,9.10
2017-09-29T08:37:52.750Z,8.40
2017-09-29T08:38:52.761Z,8.60
2017-09-29T08:39:52.825Z,8.40
2017-09-29T08:40:52.857Z,8.20
2017-09-29T08:41:52.874Z,7.50
2017-09-29T08:42:52.956Z,8.00
2017-09-29T08:43:52.915Z,7.70
2017-09-29T08:44:52.912Z,7.50
2017-09-29T08:45:52.863Z,7.70
2017-09-29T08:46:52.893Z,7.10
2017-09-29T08:47:52.931Z,7.30
2017-09-29T08:48:52.939Z,7.80
2017-09-29T08:49:53.031Z,7.50
2017-09-29T08:50:52.972Z,7.60
2017-09-29T08:51:52.983Z,7.50
2017-09-29T08:52:52.937Z,7.90
2017-09-29T08:53:52.961Z,7.40
2017-09-29T08:54:52.971Z,7.40
2017-09-29T08:55:52.983Z,7.40
2017-09-29T08:56:53.097Z,7.30
2017-09-29T08:57:53.075Z,7.50
2017-09-29T08:58:53.033Z,7.20
2017-09-29T08:59:53.064Z,7.60
2017-09-29T09:00:53.138Z,7.50
2017-09-29T09:01:53.142Z,7.40
2017-09-29T09:02:53.197Z,7.00
2017-09-29T09:03:53.159Z,7.10
2017-09-29T09:04:53.137Z,6.90
2017-09-29T09:05:53.117Z,6.60
2017-09-29T09:06:53.156Z,6.50
2017-09-29T09:07:53.188Z,5.80
2017-09-29T09:08:53.219Z,5.90
2017-09-29T09:09:53.180Z,6.40
2017-09-29T09:10:53.204Z,6.50
2017-09-29T09:11:53.214Z,5.90
2017-09-29T09:12:53.226Z,6.10
2017-09-29T09:13:53.275Z,5.90
2017-09-29T09:14:53.295Z,5.70
2017-09-29T09:15:53.438Z,5.90
2017-09-29T09:16:53.306Z,5.50
2017-09-29T09:17:53.325Z,6.70
2017-09-29T09:18:53.320Z,6.20
2017-09-29T09:19:53.395Z,6.40
2017-09-29T09:20:53.419Z,6.30
2017-09-29T09:21:53.467Z,6.00
2017-09-29T09:22:53.444Z,6.50
2017-09-29T09:23:53.486Z,6.10
2017-09-29T09:24:53.398Z,5.90
2017-09-29T09:25:53.412Z,5.90
2017-09-29T09:26:53.429Z,6.00
2017-09-29T09:27:53.445Z,5.50
2017-09-29T09:28:53.457Z,5.40
2017-09-29T09:29:53.644Z,5.00
2017-09-29T09:30:53.515Z,5.40
2017-09-29T09:31:53.509Z,4.90
2017-09-29T09:32:53.633Z,5.40
2017-09-29T09:33:53.686Z,4.90
2017-09-29T09:34:53.639Z,4.80
2017-09-29T09:35:53.613Z,5.30
2017-09-29T09:36:53.656Z,5.60
2017-09-29T09:37:53.630Z,5.90
2017-09-29T09:38:53.661Z,5.40
2017-09-29T09:39:53.686Z,5.60
2017-09-29T09:40:53.744Z,6.10
2017-09-29T09:41:53.730Z,6.50
2017-09-29T09:42:53.651Z,5.80
2017-09-29T09:43:53.664Z,6.40
2017-09-29T09:44:53.687Z,6.30
2017-09-29T09:45:53.690Z,6.20
2017-09-29T09:46:53.704Z,6.10
2017-09-29T09:47:53.710Z,5.60
2017-09-29T09:48:53.722Z,5.70
2017-09-29T09:49:53.738Z,6.10
2017-09-29T09:50:53.750Z,6.60
2017-09-29T09:51:53.762Z,6.40
2017-09-29T09:52:53.802Z,6.30
2017-09-29T09:53:53.813Z,6.70
2017-09-29T09:54:53.797Z,5.80
2017-09-29T09:55:53.809Z,6.00
2017-09-29T09:56:53.820Z,5.60
2017-09-29T09:57:53.826Z,5.10
2017-09-29T09:58:53.840Z,5.20
2017-09-29T09:59:53.850Z,4.90
2017-09-29T10:00:53.861Z,5.20
2017-09-29T10:01:53.873Z,5.40
2017-09-29T10:02:53.885Z,5.20
2017-09-29T10:03:53.898Z,5.20
2017-09-29T10:04:53.908Z,5.40
2017-09-29T10:05:53.924Z,5.80
2017-09-29T10:06:53.937Z,5.50
2017-09-29T10:07:53.952Z,5.70
2017-09-29T10:08:53.960Z,5.50
2017-09-29T10:09:53.972Z,5.90
2017-09-29T10:10:53.983Z,5.80
2017-09-29T10:11:53.996Z,6.10
2017-09-29T10:12:54.005Z,6.20
2017-09-29T10:13:54.013Z,5.60
2017-09-29T10:14:54.024Z,6.40
2017-09-29T10:15:54.036Z,6.30
2017-09-29T10:16:54.046Z,6.10
2017-09-29T10:17:54.058Z,6.10
2017-09-29T10:18:54.068Z,6.00
2017-09-29T10:19:54.081Z,5.70
2017-09-29T10:20:54.089Z,5.90
2017-09-29T10:21:54.105Z,5.80
2017-09-29T10:22:54.118Z,6.20
2017-09-29T10:23:54.130Z,5.90
2017-09-29T10:24:54.141Z,6.10
2017-09-29T10:25:54.152Z,5.60
2017-09-29T10:26:54.177Z,6.30
2017-09-29T10:27:54.177Z,6.60
2017-09-29T10:28:54.188Z,6.80
2017-09-29T10:29:54.228Z,6.90
2017-09-29T10:30:54.209Z,6.40
2017-09-29T10:31:54.218Z,6.10
2017-09-29T10:32:54.230Z,6.30
2017-09-29T10:33:54.244Z,6.30
2017-09-29T10:34:54.255Z,6.40
2017-09-29T10:35:54.266Z,6.40
2017-09-29T10:36:54.278Z,6.10
2017-09-29T10:37:54.294Z,6.70
2017-09-29T10:38:54.304Z,7.00
2017-09-29T10:39:54.317Z,6.80
2017-09-29T10:40:54.326Z,6.20
2017-09-29T10:41:54.338Z,7.20
2017-09-29T10:42:54.350Z,6.80
2017-09-29T10:43:54.360Z,6.50
2017-09-29T10:44:54.371Z,7.10
2017-09-29T10:45:54.378Z,6.60
2017-09-29T10:46:54.388Z,7.00
2017-09-29T10:47:54.400Z,6.70
2017-09-29T10:48:54.411Z,6.50
2017-09-29T10:49:54.425Z,6.60
2017-09-29T10:50:54.436Z,5.80
2017-09-29T10:51:54.449Z,5.80
2017-09-29T10:52:54.459Z,6.60
2017-09-29T10:53:54.470Z,6.10
2017-09-29T10:54:54.478Z,6.60
2017-09-29T10:55:54.488Z,6.70
2017-09-29T10:56:54.498Z,6.50
2017-09-29T10:57:54.509Z,6.70
2017-09-29T10:58:54.520Z,6.20
2017-09-29T10:59:54.529Z,6.90
2017-09-29T11:00:54.538Z,6.00
2017-09-29T11:01:54.553Z,6.60
2017-09-29T11:02:54.561Z,6.40
2017-09-29T11:03:54.572Z,6.10
2017-09-29T11:04:54.580Z,6.10
2017-09-29T11:05:54.589Z,7.10
2017-09-29T11:06:54.597Z,7.10
2017-09-29T11:07:54.606Z,6.40
2017-09-29T11:08:54.619Z,6.60
2017-09-29T11:09:54.619Z,6.50
2017-09-29T11:10:54.627Z,6.40
2017-09-29T11:11:54.635Z,6.00
2017-09-29T11:12:54.645Z,6.00
2017-09-29T11:13:54.650Z,6.10
2017-09-29T11:14:54.657Z,5.50
2017-09-29T11:15:54.666Z,6.30
2017-09-29T11:16:54.673Z,5.50
2017-09-29T11:17:54.683Z,5.40
2017-09-29T11:18:54.692Z,6.60
2017-09-29T11:19:54.700Z,6.30
2017-09-29T11:20:54.707Z,5.90
2017-09-29T11:21:54.712Z,6.20
2017-09-29T11:22:54.721Z,5.50
2017-09-29T11:23:54.728Z,5.80
2017-09-29T11:24:54.734Z,5.70
2017-09-29T11:25:54.736Z,5.10
2017-09-29T11:26:54.745Z,5.80
2017-09-29T11:27:54.751Z,5.30
2017-09-29T11:28:54.757Z,5.30
2017-09-29T11:29:54.763Z,5.20
2017-09-29T11:30:54.770Z,5.00
2017-09-29T11:31:54.777Z,5.00
2017-09-29T11:32:54.783Z,5.20
2017-09-29T11:33:54.794Z,5.10
2017-09-29T11:34:54.807Z,4.70
2017-09-29T11:35:54.808Z,4.70
2017-09-29T11:36:54.814Z,4.90
2017-09-29T11:37:54.822Z,4.80
2017-09-29T11:38:54.827Z,5.20
2017-09-29T11:39:54.834Z,5.00
2017-09-29T11:40:54.839Z,4.90
2017-09-29T11:41:54.840Z,4.80
2017-09-29T11:42:54.847Z,5.00
2017-09-29T11:43:54.855Z,4.40
2017-09-29T11:44:54.861Z,4.30
2017-09-29T11:45:54.877Z,4.90
2017-09-29T11:46:54.873Z,4.90
2017-09-29T11:47:54.879Z,4.50
2017-09-29T11:48:54.885Z,4.00
2017-09-29T11:49:54.896Z,4.60
2017-09-29T11:50:54.902Z,4.60
2017-09-29T11:51:54.908Z,4.50
2017-09-29T11:52:54.912Z,4.80
2017-09-29T11:53:54.915Z,4.50
2017-09-29T11:54:54.922Z,4.20
2017-09-29T11:55:54.927Z,4.60
2017-09-29T11:56:54.934Z,4.90
2017-09-29T11:57:54.944Z,4.50
2017-09-29T11:58:54.950Z,4.60
2017-09-29T11:59:54.956Z,4.70
2017-09-29T12:00:54.960Z,4.60
2017-09-29T12:01:54.965Z,4.70
2017-09-29T12:02:54.972Z,4.40
2017-09-29T12:03:54.977Z,5.20
2017-09-29T12:04:54.982Z,4.90
2017-09-29T12:05:54.984Z,4.40
2017-09-29T12:06:54.990Z,4.30
2017-09-29T12:07:54.996Z,4.70
2017-09-29T12:08:54.999Z,4.30
2017-09-29T12:09:55.006Z,4.60
2017-09-29T12:10:55.011Z,4.60
2017-09-29T12:11:55.017Z,4.10
2017-09-29T12:12:55.020Z,4.10
2017-09-29T12:13:55.046Z,4.20
2017-09-29T12:14:55.038Z,4.00
2017-09-29T12:15:55.042Z,4.20
2017-09-29T12:16:55.047Z,4.00
2017-09-29T12:17:55.052Z,3.90
2017-09-29T12:18:55.057Z,3.70
2017-09-29T12:19:55.063Z,4.00
2017-09-29T12:20:55.066Z,3.70
2017-09-29T12:21:55.068Z,3.70
2017-09-29T12:22:55.074Z,4.10
2017-09-29T12:23:55.082Z,3.80
2017-09-29T12:24:55.084Z,4.10
2017-09-29T12:25:55.089Z,3.90
2017-09-29T12:26:55.094Z,3.80
2017-09-29T12:27:55.100Z,3.90
2017-09-29T12:28:55.104Z,3.50
2017-09-29T12:29:55.113Z,3.70
2017-09-29T12:30:55.120Z,3.80
2017-09-29T12:31:55.125Z,4.40
2017-09-29T12:32:55.129Z,4.00
2017-09-29T12:33:55.136Z,3.80
2017-09-29T12:34:55.140Z,3.80
2017-09-29T12:35:55.151Z,3.50
2017-09-29T12:36:55.151Z,3.10
2017-09-29T12:37:55.152Z,3.80
2017-09-29T12:38:55.157Z,3.70
2017-09-29T12:39:55.163Z,3.60
2017-09-29T12:40:55.166Z,3.40
2017-09-29T12:41:55.172Z,3.40
2017-09-29T12:42:55.178Z,3.50
2017-09-29T12:43:55.183Z,3.40
2017-09-29T12:44:55.188Z,3.30
2017-09-29T12:45:55.198Z,3.80
2017-09-29T12:46:55.203Z,3.50
2017-09-29T12:47:55.208Z,3.40
2017-09-29T12:48:55.215Z,3.40
2017-09-29T12:49:55.218Z,3.90
2017-09-29T12:50:55.223Z,3.30
2017-09-29T12:51:55.227Z,3.30
2017-09-29T12:52:55.231Z,3.40
2017-09-29T12:53:55.235Z,3.30
2017-09-29T12:54:55.240Z,3.60
2017-09-29T12:55:55.245Z,3.10
2017-09-29T12:56:55.249Z,3.80
2017-09-29T12:57:55.257Z,3.60
2017-09-29T12:58:55.264Z,3.30
2017-09-29T12:59:55.270Z,3.50
2017-09-29T13:00:55.276Z,3.50
2017-09-29T13:01:55.274Z,3.10